createdAt,value
2022-10-06T00:01:14.066Z,102469.47
2022-10-06T00:03:41.709Z,102473.09
2022-10-06T00:06:11.060Z,102476.59
2022-10-06T00:08:40.038Z,102476.53
2022-10-06T00:11:12.236Z,102484.47
2022-10-06T00:13:40.396Z,102474.72
2022-10-06T00:16:13.123Z,102473.81
2022-10-06T00:18:40.499Z,102478.97
2022-10-06T00:21:07.806Z,102475.41
2022-10-06T00:23:35.189Z,102477.25
2022-10-06T00:26:02.556Z,102473.59
2022-10-06T00:28:29.899Z,102478.13
2022-10-06T00:31:01.963Z,102470.06
2022-10-06T00:33:29.153Z,102473.66
2022-10-06T00:35:58.355Z,102468.16
2022-10-06T00:38:27.521Z,102469.13
2022-10-06T00:40:56.253Z,102468.31
2022-10-06T00:43:51.523Z,102467.50
2022-10-06T00:46:26.333Z,102464.84
2022-10-06T00:49:00.949Z,102468.25
2022-10-06T00:51:31.091Z,102458.59
2022-10-06T00:53:58.929Z,102468.13
2022-10-06T00:56:27.638Z,102461.97
2022-10-06T00:58:54.890Z,102460.28
2022-10-06T01:01:22.173Z,102460.22
2022-10-06T01:03:55.313Z,102466.28
2022-10-06T01:06:22.385Z,102473.41
2022-10-06T01:08:50.552Z,102464.63
2022-10-06T01:11:17.785Z,102465.56
2022-10-06T01:13:47.799Z,102460.19
2022-10-06T01:16:25.491Z,102459.25
2022-10-06T01:18:56.000Z,102464.63
2022-10-06T01:21:35.037Z,102460.94
2022-10-06T01:24:03.950Z,102465.38
2022-10-06T01:26:34.514Z,102460.94
2022-10-06T01:29:01.935Z,102464.44
2022-10-06T01:31:29.758Z,102462.75
2022-10-06T01:33:57.061Z,102466.19
2022-10-06T01:36:24.437Z,102464.44
2022-10-06T01:38:52.184Z,102467.19
2022-10-06T01:41:19.859Z,102454.03
2022-10-06T01:43:47.346Z,102456.44
2022-10-06T01:46:15.547Z,102454.78
2022-10-06T01:48:44.248Z,102449.53
2022-10-06T01:51:16.982Z,102454.84
2022-10-06T01:53:44.316Z,102450.38
2022-10-06T01:56:11.747Z,102466.34
2022-10-06T01:58:39.296Z,102469.91
2022-10-06T02:01:09.194Z,102465.41
2022-10-06T02:03:38.557Z,102466.28
2022-10-06T02:06:09.411Z,102468.75
2022-10-06T02:08:36.708Z,102466.28
2022-10-06T02:11:10.651Z,102460.97
2022-10-06T02:13:44.917Z,102467.81
2022-10-06T02:16:14.429Z,102463.44
2022-10-06T02:18:43.198Z,102462.53
2022-10-06T02:21:21.386Z,102465.13
2022-10-06T02:23:52.172Z,102464.22
2022-10-06T02:26:19.472Z,102454.69
2022-10-06T02:28:50.942Z,102460.81
2022-10-06T02:31:24.462Z,102466.13
2022-10-06T02:33:52.454Z,102467.75
2022-10-06T02:36:20.195Z,102463.41
2022-10-06T02:38:47.249Z,102470.44
2022-10-06T02:41:14.670Z,102464.28
2022-10-06T02:43:41.786Z,102472.25
2022-10-06T02:46:14.721Z,102463.34
2022-10-06T02:48:47.604Z,102459.03
2022-10-06T02:51:18.569Z,102460.78
2022-10-06T02:53:48.407Z,102454.50
2022-10-06T02:56:25.987Z,102455.44
2022-10-06T02:58:54.246Z,102451.03
2022-10-06T03:01:30.667Z,102458.66
2022-10-06T03:04:02.369Z,102455.28
2022-10-06T03:06:32.741Z,102465.88
2022-10-06T03:09:16.573Z,102469.44
2022-10-06T03:11:51.148Z,102455.25
2022-10-06T03:14:32.169Z,102456.16
2022-10-06T03:16:59.859Z,102457.81
2022-10-06T03:19:33.436Z,102460.50
2022-10-06T03:22:01.391Z,102464.06
2022-10-06T03:24:37.835Z,102457.84
2022-10-06T03:27:05.395Z,102459.56
2022-10-06T03:29:34.327Z,102457.69
2022-10-06T03:32:05.439Z,102458.69
2022-10-06T03:34:34.331Z,102467.47
2022-10-06T03:37:06.074Z,102465.59
2022-10-06T03:39:34.484Z,102459.59
2022-10-06T03:42:02.320Z,102464.75
2022-10-06T03:44:36.230Z,102469.28
2022-10-06T03:47:04.243Z,102472.69
2022-10-06T03:49:33.555Z,102479.84
2022-10-06T03:52:00.816Z,102475.06
2022-10-06T03:54:34.740Z,102478.03
2022-10-06T03:57:04.798Z,102479.66
2022-10-06T03:59:34.639Z,102471.63
2022-10-06T04:02:06.310Z,102482.81
2022-10-06T04:04:38.039Z,102496.31
2022-10-06T04:07:09.883Z,102489.31
2022-10-06T04:09:37.757Z,102483.13
2022-10-06T04:12:21.356Z,102486.78
2022-10-06T04:14:54.398Z,102480.59
2022-10-06T04:17:25.200Z,102485.84
2022-10-06T04:19:52.810Z,102482.25
2022-10-06T04:22:20.621Z,102480.56
2022-10-06T04:24:50.149Z,102484.09
2022-10-06T04:27:29.517Z,102490.38
2022-10-06T04:30:07.129Z,102488.63
2022-10-06T04:32:41.031Z,102489.53
2022-10-06T04:35:08.812Z,102476.41
2022-10-06T04:37:45.350Z,102483.44
2022-10-06T04:40:14.128Z,102478.16
2022-10-06T04:42:41.708Z,102484.34
2022-10-06T04:45:17.062Z,102488.75
2022-10-06T04:47:48.435Z,102482.56
2022-10-06T04:50:16.260Z,102484.34
2022-10-06T04:53:06.628Z,102491.34
2022-10-06T04:55:36.879Z,102488.66
2022-10-06T04:58:04.784Z,102495.53
2022-10-06T05:00:32.168Z,102497.38
2022-10-06T05:03:01.933Z,102501.72
2022-10-06T05:05:32.761Z,102505.09
2022-10-06T05:08:02.784Z,102502.56
2022-10-06T05:10:33.830Z,102509.59
2022-10-06T05:13:07.969Z,102504.34
2022-10-06T05:15:40.160Z,102509.25
2022-10-06T05:18:07.452Z,102501.56
2022-10-06T05:20:34.920Z,102503.31
2022-10-06T05:23:10.270Z,102504.78
2022-10-06T05:25:40.817Z,102504.88
2022-10-06T05:28:09.110Z,102501.28
2022-10-06T05:30:39.992Z,102503.78
2022-10-06T05:33:08.032Z,102509.88
2022-10-06T05:35:38.337Z,102513.38
2022-10-06T05:38:12.053Z,102518.53
2022-10-06T05:40:43.379Z,102515.88
2022-10-06T05:43:11.001Z,102507.84
2022-10-06T05:45:40.955Z,102497.00
2022-10-06T05:48:10.415Z,102504.16
2022-10-06T05:50:40.556Z,102512.91
2022-10-06T05:53:08.020Z,102512.22
2022-10-06T05:55:44.563Z,102520.91
2022-10-06T05:58:21.046Z,102509.53
2022-10-06T06:00:49.333Z,102511.16
2022-10-06T06:03:17.110Z,102500.91
2022-10-06T06:05:44.487Z,102519.81
2022-10-06T06:08:22.499Z,102520.19
2022-10-06T06:10:50.636Z,102523.72
2022-10-06T06:13:29.200Z,102528.31
2022-10-06T06:16:12.724Z,102530.06
2022-10-06T06:18:46.944Z,102526.59
2022-10-06T06:21:18.889Z,102531.91
2022-10-06T06:23:50.656Z,102536.06
2022-10-06T06:26:23.877Z,102530.69
2022-10-06T06:28:52.600Z,102534.22
2022-10-06T06:31:29.747Z,102528.03
2022-10-06T06:34:00.413Z,102530.00
2022-10-06T06:36:42.094Z,102532.53
2022-10-06T06:39:16.776Z,102537.81
2022-10-06T06:41:52.026Z,102538.69
2022-10-06T06:44:41.827Z,102549.44
2022-10-06T06:47:36.084Z,102544.31
2022-10-06T06:50:16.452Z,102553.75
2022-10-06T06:56:03.182Z,102546.94
2022-10-06T06:58:33.600Z,102559.22
2022-10-06T07:01:16.864Z,102568.19
2022-10-06T07:03:58.624Z,102563.81
2022-10-06T07:06:33.536Z,102565.78
2022-10-06T07:09:07.188Z,102568.38
2022-10-06T07:11:39.123Z,102576.28
2022-10-06T07:14:13.103Z,102577.09
2022-10-06T07:17:02.881Z,102579.66
2022-10-06T07:19:49.413Z,102579.53
2022-10-06T07:22:39.568Z,102584.22
2022-10-06T07:25:40.507Z,102579.97
2022-10-06T07:28:12.615Z,102584.50
2022-10-06T07:30:41.851Z,102593.06
2022-10-06T07:33:19.580Z,102590.81
2022-10-06T07:35:51.871Z,102590.75
2022-10-06T07:38:27.804Z,102593.47
2022-10-06T07:41:28.989Z,102597.94
2022-10-06T07:43:50.559Z,102607.59
2022-10-06T07:46:24.271Z,102606.06
2022-10-06T07:48:58.161Z,102606.22
2022-10-06T07:51:27.514Z,102609.75
2022-10-06T07:53:59.705Z,102617.78
2022-10-06T07:56:47.266Z,102623.03
2022-10-06T07:59:14.611Z,102625.81
2022-10-06T08:01:44.488Z,102622.25
2022-10-06T08:04:13.192Z,102629.34
2022-10-06T08:06:42.218Z,102629.47
2022-10-06T08:09:09.739Z,102631.28
2022-10-06T08:11:37.591Z,102621.63
2022-10-06T08:14:04.903Z,102626.94
2022-10-06T08:16:32.462Z,102634.84
2022-10-06T08:19:01.181Z,102637.63
2022-10-06T08:21:36.930Z,102636.72
2022-10-06T08:24:04.261Z,102644.00
2022-10-06T08:26:33.484Z,102642.19
2022-10-06T08:29:03.839Z,102648.31
2022-10-06T08:31:32.893Z,102647.47
2022-10-06T08:34:01.601Z,102645.84
2022-10-06T08:36:31.836Z,102652.16
2022-10-06T08:39:00.907Z,102646.88
2022-10-06T08:41:48.861Z,102645.91
2022-10-06T08:44:19.513Z,102640.78
2022-10-06T08:47:03.032Z,102640.88
2022-10-06T08:49:49.806Z,102647.13
2022-10-06T08:52:35.937Z,102649.94
2022-10-06T08:55:42.482Z,102651.88
2022-10-06T08:58:32.375Z,102651.06
2022-10-06T09:01:14.708Z,102652.72
2022-10-06T09:03:48.903Z,102651.78
2022-10-06T09:06:28.007Z,102655.38
2022-10-06T09:09:04.683Z,102657.16
2022-10-06T09:11:45.724Z,102656.31
2022-10-06T09:14:33.576Z,102660.78
2022-10-06T09:17:06.268Z,102658.97
2022-10-06T09:19:58.809Z,102666.97
2022-10-06T09:22:33.090Z,102666.97
2022-10-06T09:25:15.740Z,102660.78
2022-10-06T09:27:51.466Z,102666.06
2022-10-06T09:30:19.574Z,102661.63
2022-10-06T09:36:11.176Z,102664.28
2022-10-06T09:38:57.510Z,102654.53
2022-10-06T09:41:42.023Z,102661.63
2022-10-06T09:44:52.380Z,102646.53
2022-10-06T09:47:46.661Z,102646.56
2022-10-06T09:50:17.065Z,102645.44
2022-10-06T09:53:25.833Z,102651.44
2022-10-06T09:56:00.010Z,102646.69
2022-10-06T09:58:40.845Z,102648.88
2022-10-06T10:01:17.817Z,102633.59
2022-10-06T10:04:19.375Z,102640.47
2022-10-06T10:06:53.560Z,102634.97
2022-10-06T10:09:31.563Z,102635.91
2022-10-06T10:12:30.533Z,102620.91
2022-10-06T10:15:04.815Z,102630.34
2022-10-06T10:17:43.611Z,102625.81
2022-10-06T10:20:30.891Z,102623.75
2022-10-06T10:23:05.747Z,102631.56
2022-10-06T10:26:15.085Z,102624.38
2022-10-06T10:29:04.519Z,102623.38
2022-10-06T10:32:15.263Z,102618.63
2022-10-06T10:35:17.033Z,102622.63
2022-10-06T10:38:14.442Z,102618.91
2022-10-06T10:40:54.092Z,102616.25
2022-10-06T10:43:43.437Z,102613.81
2022-10-06T10:46:30.716Z,102611.13
2022-10-06T10:49:20.685Z,102612.53
2022-10-06T10:52:09.558Z,102600.56
2022-10-06T10:55:00.279Z,102617.66
2022-10-06T10:57:41.278Z,102602.34
2022-10-06T11:00:16.673Z,102614.19
2022-10-06T11:02:44.823Z,102604.41
2022-10-06T11:05:19.481Z,102603.94
2022-10-06T11:08:17.649Z,102601.66
2022-10-06T11:10:57.148Z,102600.28
2022-10-06T11:13:42.749Z,102598.72
2022-10-06T11:16:50.419Z,102607.63
2022-10-06T11:19:56.637Z,102600.69
2022-10-06T11:22:39.911Z,102596.78
2022-10-06T11:25:21.056Z,102593.97
2022-10-06T11:28:15.566Z,102598.47
2022-10-06T11:30:55.091Z,102600.75
2022-10-06T11:33:50.196Z,102596.38
2022-10-06T11:36:46.222Z,102595.25
2022-10-06T11:39:23.664Z,102591.94
2022-10-06T11:42:35.655Z,102587.72
2022-10-06T11:45:12.402Z,102591.38
2022-10-06T11:48:11.220Z,102594.28
2022-10-06T11:50:44.776Z,102595.09
2022-10-06T11:53:37.328Z,102583.94
2022-10-06T11:56:19.947Z,102573.88
2022-10-06T11:58:56.204Z,102569.03
2022-10-06T12:01:33.902Z,102566.66
2022-10-06T12:04:10.462Z,102566.63
2022-10-06T12:07:04.794Z,102548.41
2022-10-06T12:09:51.003Z,102551.91
2022-10-06T12:12:19.444Z,102538.69
2022-10-06T12:18:05.077Z,102530.13
2022-10-06T12:20:52.360Z,102528.38
2022-10-06T12:23:42.905Z,102506.91
2022-10-06T12:26:28.952Z,102510.06
2022-10-06T12:29:16.450Z,102498.84
2022-10-06T12:31:55.486Z,102496.25
2022-10-06T12:34:50.209Z,102496.59
2022-10-06T12:37:33.540Z,102491.50
2022-10-06T12:40:38.289Z,102499.41
2022-10-06T12:43:23.822Z,102497.38
2022-10-06T12:46:19.788Z,102503.09
2022-10-06T12:49:08.046Z,102492.88
2022-10-06T12:51:39.303Z,102492.88
2022-10-06T12:54:19.761Z,102490.22
2022-10-06T12:57:01.593Z,102494.09
2022-10-06T12:59:35.963Z,102499.34
2022-10-06T13:02:20.569Z,102494.09
2022-10-06T13:05:15.380Z,102505.38
2022-10-06T13:07:59.424Z,102505.78
2022-10-06T13:10:30.560Z,102504.38
2022-10-06T13:13:00.607Z,102495.59
2022-10-06T13:15:41.710Z,102495.31
2022-10-06T13:18:18.582Z,102491.38
2022-10-06T13:21:00.742Z,102508.97
2022-10-06T13:23:29.860Z,102492.88
2022-10-06T13:26:02.803Z,102503.16
2022-10-06T13:28:38.539Z,102489.19
2022-10-06T13:31:29.792Z,102484.50
2022-10-06T13:34:11.311Z,102474.63
2022-10-06T13:36:41.931Z,102473.75
2022-10-06T13:39:16.047Z,102486.91
2022-10-06T13:42:00.696Z,102487.94
2022-10-06T13:44:41.876Z,102495.94
2022-10-06T13:47:17.846Z,102484.69
2022-10-06T13:50:04.369Z,102485.41
2022-10-06T13:52:48.345Z,102492.94
2022-10-06T13:55:21.385Z,102484.19
2022-10-06T13:57:50.506Z,102487.38
2022-10-06T14:00:24.683Z,102488.81
2022-10-06T14:02:54.586Z,102491.25
2022-10-06T14:05:32.385Z,102484.38
2022-10-06T14:08:12.239Z,102484.50
2022-10-06T14:10:59.917Z,102491.47
2022-10-06T14:13:49.849Z,102483.50
2022-10-06T14:16:26.432Z,102500.22
2022-10-06T14:19:01.469Z,102498.25
2022-10-06T14:21:45.211Z,102503.22
2022-10-06T14:24:19.841Z,102497.50
2022-10-06T14:26:51.413Z,102493.00
2022-10-06T14:29:21.078Z,102495.81
2022-10-06T14:31:49.688Z,102506.28
2022-10-06T14:34:20.878Z,102497.50
2022-10-06T14:36:54.186Z,102497.09
2022-10-06T14:39:22.654Z,102499.25
2022-10-06T14:41:50.124Z,102495.34
2022-10-06T14:44:19.472Z,102499.06
2022-10-06T14:46:51.278Z,102498.16
2022-10-06T14:49:19.172Z,102503.72
2022-10-06T14:51:48.613Z,102505.91
2022-10-06T14:54:16.835Z,102489.25
2022-10-06T14:56:44.402Z,102484.50
2022-10-06T14:59:17.341Z,102491.50
2022-10-06T15:01:46.175Z,102480.34
2022-10-06T15:04:15.911Z,102478.38
2022-10-06T15:07:02.326Z,102479.63
2022-10-06T15:09:31.576Z,102486.06
2022-10-06T15:12:03.213Z,102480.97
2022-10-06T15:14:31.138Z,102482.00
2022-10-06T15:17:00.494Z,102481.81
2022-10-06T15:19:28.421Z,102486.59
2022-10-06T15:23:06.594Z,102482.56
2022-10-06T15:25:52.892Z,102487.31
2022-10-06T15:28:38.783Z,102493.00
2022-10-06T15:31:06.910Z,102488.44
2022-10-06T15:33:37.657Z,102495.63
2022-10-06T15:36:19.371Z,102489.53
2022-10-06T15:38:47.649Z,102482.31
2022-10-06T15:41:14.938Z,102489.19
2022-10-06T15:43:59.634Z,102487.03
2022-10-06T15:46:41.072Z,102480.06
2022-10-06T15:49:24.888Z,102496.19
2022-10-06T15:52:07.032Z,102493.66
2022-10-06T15:54:38.513Z,102493.66
2022-10-06T15:57:16.577Z,102496.66
2022-10-06T15:59:46.504Z,102501.00
2022-10-06T16:02:18.644Z,102499.09
2022-10-06T16:05:15.260Z,102499.09
2022-10-06T16:07:50.109Z,102493.13
2022-10-06T16:10:21.527Z,102490.69
2022-10-06T16:12:51.744Z,102494.97
2022-10-06T16:15:19.234Z,102486.34
2022-10-06T16:17:47.586Z,102490.72
2022-10-06T16:20:20.744Z,102483.00
2022-10-06T16:22:52.149Z,102483.78
2022-10-06T16:25:19.765Z,102477.50
2022-10-06T16:28:07.650Z,102475.06
2022-10-06T16:30:44.671Z,102475.09
2022-10-06T16:33:17.555Z,102479.59
2022-10-06T16:36:00.911Z,102482.28
2022-10-06T16:38:36.393Z,102479.69
2022-10-06T16:41:05.988Z,102483.38
2022-10-06T16:43:35.492Z,102486.94
2022-10-06T16:46:24.242Z,102484.34
2022-10-06T16:48:55.276Z,102480.88
2022-10-06T16:51:37.827Z,102478.19
2022-10-06T16:54:08.136Z,102486.25
2022-10-06T16:56:37.300Z,102484.63
2022-10-06T16:59:08.018Z,102483.59
2022-10-06T17:01:37.578Z,102480.06
2022-10-06T17:04:07.876Z,102476.44
2022-10-06T17:06:40.038Z,102481.91
2022-10-06T17:09:09.168Z,102485.41
2022-10-06T17:11:36.612Z,102484.41
2022-10-06T17:14:05.468Z,102489.84
2022-10-06T17:16:36.222Z,102484.53
2022-10-06T17:19:04.463Z,102481.00
2022-10-06T17:21:45.752Z,102471.25
2022-10-06T17:24:15.251Z,102485.41
2022-10-06T17:26:44.403Z,102482.72
2022-10-06T17:29:20.608Z,102482.81
2022-10-06T17:31:51.220Z,102490.00
2022-10-06T17:34:26.495Z,102480.13
2022-10-06T17:37:02.756Z,102493.41
2022-10-06T17:39:30.879Z,102488.16
2022-10-06T17:41:58.099Z,102498.78
2022-10-06T17:44:29.473Z,102493.47
2022-10-06T17:47:01.975Z,102497.06
2022-10-06T17:49:35.826Z,102497.06
2022-10-06T17:52:03.049Z,102494.41
2022-10-06T17:54:32.896Z,102492.66
2022-10-06T17:57:00.759Z,102498.84
2022-10-06T17:59:32.319Z,102492.75
2022-10-06T18:02:02.967Z,102494.53
2022-10-06T18:04:31.968Z,102501.56
2022-10-06T18:06:59.312Z,102506.91
2022-10-06T18:09:26.854Z,102514.00
2022-10-06T18:11:58.251Z,102507.78
2022-10-06T18:14:32.637Z,102510.44
2022-10-06T18:17:09.911Z,102509.56
2022-10-06T18:19:39.526Z,102505.13
2022-10-06T18:22:14.750Z,102510.44
2022-10-06T18:24:42.321Z,102506.88
2022-10-06T18:27:09.719Z,102507.78
2022-10-06T18:29:42.781Z,102511.34
2022-10-06T18:37:56.739Z,102504.25
2022-10-06T18:40:25.669Z,102506.91
2022-10-06T18:42:55.135Z,102506.00
2022-10-06T18:45:49.591Z,102499.88
2022-10-06T18:48:49.213Z,102510.44
2022-10-06T18:51:36.283Z,102503.38
2022-10-06T18:54:25.608Z,102498.09
2022-10-06T18:57:03.169Z,102500.75
2022-10-06T18:59:32.332Z,102497.22
2022-10-06T19:02:01.024Z,102494.56
2022-10-06T19:04:31.007Z,102496.31
2022-10-06T19:07:02.399Z,102497.19
2022-10-06T19:09:32.780Z,102502.50
2022-10-06T19:12:02.992Z,102505.16
2022-10-06T19:14:40.851Z,102506.03
2022-10-06T19:17:16.097Z,102509.53
2022-10-06T19:19:45.994Z,102518.44
2022-10-06T19:22:20.669Z,102522.84
2022-10-06T19:24:53.373Z,102521.06
2022-10-06T19:27:33.222Z,102522.81
2022-10-06T19:30:06.870Z,102521.06
2022-10-06T19:32:42.272Z,102523.72
2022-10-06T19:35:13.651Z,102531.69
2022-10-06T19:37:45.947Z,102527.28
2022-10-06T19:40:16.113Z,102532.53
2022-10-06T19:42:48.225Z,102529.91
2022-10-06T19:45:31.036Z,102528.97
2022-10-06T19:48:03.540Z,102528.13
2022-10-06T19:50:46.849Z,102529.03
2022-10-06T19:53:23.166Z,102526.34
2022-10-06T19:58:33.578Z,102521.06
2022-10-06T20:01:07.638Z,102523.69
2022-10-06T20:03:45.047Z,102530.78
2022-10-06T20:06:21.755Z,102529.91
2022-10-06T20:08:49.886Z,102526.38
2022-10-06T20:11:22.501Z,102535.22
2022-10-06T20:13:50.537Z,102542.28
2022-10-06T20:16:21.076Z,102532.56
2022-10-06T20:18:50.785Z,102531.66
2022-10-06T20:21:22.761Z,102538.75
2022-10-06T20:23:56.886Z,102538.75
2022-10-06T20:26:29.606Z,102534.31
2022-10-06T20:28:59.361Z,102534.31
2022-10-06T20:31:29.478Z,102526.34
2022-10-06T20:33:59.726Z,102524.59
2022-10-06T20:36:31.942Z,102521.94
2022-10-06T20:39:19.436Z,102529.91
2022-10-06T20:41:46.824Z,102529.88
2022-10-06T20:44:14.013Z,102530.78
2022-10-06T20:46:45.085Z,102530.78
2022-10-06T20:49:17.529Z,102530.78
2022-10-06T20:51:50.216Z,102531.69
2022-10-06T20:54:31.084Z,102531.66
2022-10-06T20:56:58.226Z,102536.97
2022-10-06T20:59:25.350Z,102528.97
2022-10-06T21:01:52.843Z,102539.56
2022-10-06T21:04:24.083Z,102535.16
2022-10-06T21:06:52.008Z,102544.00
2022-10-06T21:09:23.202Z,102545.75
2022-10-06T21:11:53.993Z,102539.56
2022-10-06T21:14:25.383Z,102537.81
2022-10-06T21:17:00.226Z,102538.69
2022-10-06T21:19:39.369Z,102538.69
2022-10-06T21:22:06.833Z,102534.28
2022-10-06T21:24:37.349Z,102536.03
2022-10-06T21:27:11.352Z,102537.78
2022-10-06T21:30:29.290Z,102536.00
2022-10-06T21:33:19.480Z,102528.97
2022-10-06T21:36:06.743Z,102521.00
2022-10-06T21:41:34.585Z,102513.94
2022-10-06T21:44:15.542Z,102517.44
2022-10-06T21:49:50.971Z,102512.16
2022-10-06T21:52:27.491Z,102523.63
2022-10-06T21:55:06.931Z,102510.41
2022-10-06T21:57:37.321Z,102495.38
2022-10-06T22:00:11.378Z,102498.91
2022-10-06T22:02:49.435Z,102508.59
2022-10-06T22:05:25.888Z,102506.81
2022-10-06T22:07:56.998Z,102495.31
2022-10-06T22:10:29.905Z,102494.44
2022-10-06T22:13:19.290Z,102482.00
2022-10-06T22:16:04.257Z,102482.00
2022-10-06T22:18:43.583Z,102475.78
2022-10-06T22:21:28.252Z,102478.44
2022-10-06T22:24:06.908Z,102476.63
2022-10-06T22:26:42.558Z,102474.88
2022-10-06T22:29:18.747Z,102466.94
2022-10-06T22:32:04.983Z,102469.56
2022-10-06T22:34:34.381Z,102475.75
2022-10-06T22:37:11.267Z,102472.19
2022-10-06T22:39:39.018Z,102463.34
2022-10-06T22:42:06.772Z,102465.13
2022-10-06T22:44:34.112Z,102462.47
2022-10-06T22:47:04.950Z,102466.88
2022-10-06T22:49:40.128Z,102466.00
2022-10-06T22:52:07.974Z,102461.59
2022-10-06T22:54:35.439Z,102465.13
2022-10-06T22:57:07.182Z,102468.66
2022-10-06T22:59:40.590Z,102467.78
2022-10-06T23:02:11.113Z,102462.47
2022-10-06T23:04:39.090Z,102460.72
2022-10-06T23:07:07.766Z,102458.97
2022-10-06T23:09:38.628Z,102454.53
2022-10-06T23:12:06.056Z,102460.72
2022-10-06T23:14:36.438Z,102454.56
2022-10-06T23:17:04.251Z,102452.78
2022-10-06T23:19:35.848Z,102442.19
2022-10-06T23:22:03.461Z,102444.84
2022-10-06T23:24:30.975Z,102441.31
2022-10-06T23:27:04.732Z,102433.31
2022-10-06T23:29:35.565Z,102427.16
2022-10-06T23:32:05.416Z,102422.66
2022-10-06T23:34:35.198Z,102423.56
2022-10-06T23:37:02.572Z,102424.44
2022-10-06T23:39:30.041Z,102430.50
2022-10-06T23:41:58.017Z,102429.66
2022-10-06T23:44:27.291Z,102422.69
2022-10-06T23:46:54.623Z,102427.00
2022-10-06T23:49:21.958Z,102426.13
2022-10-06T23:51:49.500Z,102413.78
2022-10-06T23:54:19.043Z,102420.84
2022-10-06T23:56:51.631Z,102409.38
